Time;durP1;ratioP1;P1;durP2;ratioP2;P2;SDS_P1;SDS_P2;PMS_P1;PMS_P2;Temp;Humidity;BMP_temperature;BMP_pressure;BME280_temperature;BME280_humidity;BME280_pressure;Samples;Min_cycle;Max_cycle;Signal;HPM_P1;HPM_P2
2022/11/05 00:09:37;;;;;;;37.33;26.50;;;;;;;12.78;63.65;94233.38;4180304;28;20377;-54
2022/11/05 00:18:39;;;;;;;35.80;24.52;;;;;;;12.97;63.39;94253.00;4211770;28;20211;-54
2022/11/05 00:20:41;;;;;;;41.05;27.45;;;;;;;13.04;63.06;94240.75;4208835;28;20530;-51
2022/11/05 00:25:15;;;;;;;34.63;23.83;;;;;;;13.12;63.08;94240.66;4211261;28;20659;-53
2022/11/05 00:27:17;;;;;;;34.03;24.05;;;;;;;13.15;62.75;94234.19;4192887;28;20550;-51
2022/11/05 00:29:19;;;;;;;32.30;22.55;;;;;;;12.95;63.28;94221.66;4195511;28;20506;-53
2022/11/05 00:31:20;;;;;;;32.45;23.65;;;;;;;12.73;64.46;94217.34;4191900;28;20080;-53
2022/11/05 00:33:22;;;;;;;32.83;22.27;;;;;;;12.72;64.56;94219.16;4192333;28;20052;-54
2022/11/05 00:35:23;;;;;;;36.00;24.02;;;;;;;12.57;64.87;94210.47;4195944;28;20052;-51
2022/11/05 00:37:29;;;;;;;35.05;23.77;;;;;;;12.44;65.64;94232.13;4194760;28;20439;-55
2022/11/05 00:39:30;;;;;;;39.60;25.75;;;;;;;12.48;65.60;94234.22;4205796;28;20082;-56
2022/11/05 00:41:32;;;;;;;38.80;23.17;;;;;;;12.61;65.24;94233.56;4199585;28;20048;-50
2022/11/05 00:45:54;;;;;;;35.97;22.65;;;;;;;12.89;64.18;94219.75;4183807;28;20132;-50
2022/11/05 00:50:20;;;;;;;35.67;23.00;;;;;;;13.05;63.47;94209.00;4199087;28;20139;-53
2022/11/05 00:54:42;;;;;;;34.45;22.98;;;;;;;12.91;63.53;94210.69;4189982;28;20048;-53
2022/11/05 00:56:44;;;;;;;35.95;23.52;;;;;;;12.72;64.53;94210.47;4204323;28;20051;-51
2022/11/05 00:58:45;;;;;;;38.40;24.48;;;;;;;12.67;64.61;94211.00;4201616;28;20044;-55
2022/11/05 01:00:49;;;;;;;32.10;22.52;;;;;;;12.33;65.86;94201.09;4201157;28;20413;-56
2022/11/05 01:02:51;;;;;;;37.38;24.33;;;;;;;12.28;66.10;94202.44;4184333;28;20072;-55
2022/11/05 01:04:53;;;;;;;36.60;24.92;;;;;;;12.38;66.10;94214.47;4192671;28;20690;-55
2022/11/05 01:06:54;;;;;;;35.83;24.05;;;;;;;12.48;65.69;94204.50;4194009;28;20374;-55
2022/11/05 01:08:56;;;;;;;38.85;24.25;;;;;;;12.48;65.49;94200.06;4187510;28;20458;-56
2022/11/05 01:10:58;;;;;;;36.13;24.75;;;;;;;12.47;65.54;94202.88;4180780;28;20143;-51
2022/11/05 01:12:59;;;;;;;32.88;23.63;;;;;;;12.42;65.70;94195.53;4181950;28;20173;-56
2022/11/05 01:15:01;;;;;;;36.40;23.63;;;;;;;12.41;65.96;94201.81;4180271;28;20140;-53
2022/11/05 01:17:03;;;;;;;37.65;24.67;;;;;;;12.48;65.39;94207.13;4188857;28;20544;-55
2022/11/05 01:19:07;;;;;;;32.33;23.15;;;;;;;12.58;65.59;94188.44;4195505;28;20079;-55
2022/11/05 01:21:13;;;;;;;41.17;25.33;;;;;;;12.47;65.46;94184.47;4182741;28;20051;-54
2022/11/05 01:23:15;;;;;;;34.45;23.98;;;;;;;12.52;65.32;94191.81;4181608;28;20137;-56
2022/11/05 01:25:17;;;;;;;41.28;24.67;;;;;;;12.58;65.25;94185.81;4180731;28;20057;-54
2022/11/05 01:27:19;;;;;;;39.03;24.13;;;;;;;12.64;65.14;94174.56;4194920;28;20048;-54
2022/11/05 01:29:20;;;;;;;35.67;24.63;;;;;;;12.74;64.92;94175.09;4192945;28;20072;-52
2022/11/05 01:31:22;;;;;;;34.80;24.63;;;;;;;12.79;64.50;94182.44;4183131;28;20135;-55
2022/11/05 01:33:24;;;;;;;35.55;23.33;;;;;;;12.87;64.69;94175.25;4195774;28;20139;-56
2022/11/05 01:35:26;;;;;;;37.30;24.95;;;;;;;12.91;64.27;94176.50;4193326;28;20391;-57
2022/11/05 01:37:27;;;;;;;37.30;24.38;;;;;;;12.95;64.11;94169.06;4201679;28;20049;-53
2022/11/05 01:39:29;;;;;;;33.42;23.58;;;;;;;12.95;63.83;94161.19;4203312;28;20078;-57
2022/11/05 01:41:31;;;;;;;37.53;24.92;;;;;;;12.84;64.32;94156.41;4205429;28;20585;-55
2022/11/05 01:43:44;;;;;;;35.92;23.65;;;;;;;12.82;64.62;94155.75;4188007;28;20574;-54
2022/11/05 01:45:49;;;;;;;36.97;24.20;;;;;;;12.85;64.38;94147.53;4185249;28;20470;-53
2022/11/05 01:48:02;;;;;;;32.25;23.05;;;;;;;12.88;64.35;94145.34;4204294;28;20136;-53
2022/11/05 01:50:29;;;;;;;38.83;24.40;;;;;;;12.84;64.42;94148.50;4196791;28;20049;-56
2022/11/05 01:52:32;;;;;;;38.00;24.65;;;;;;;12.89;64.23;94144.34;4181777;28;20044;-54
2022/11/05 01:54:34;;;;;;;35.72;25.40;;;;;;;12.80;64.44;94142.00;4196221;28;20060;-56
2022/11/05 01:56:42;;;;;;;34.95;23.90;;;;;;;12.72;64.82;94144.75;4200243;28;20525;-55
2022/11/05 01:59:01;;;;;;;34.72;22.90;;;;;;;12.75;64.84;94149.63;4199536;28;20136;-53
2022/11/05 02:01:03;;;;;;;40.22;24.45;;;;;;;12.81;64.54;94147.06;4199224;28;20857;-53
2022/11/05 02:03:04;;;;;;;35.63;23.83;;;;;;;12.79;64.47;94143.00;4202754;28;20148;-56
2022/11/05 02:05:07;;;;;;;40.38;23.73;;;;;;;12.73;65.02;94136.66;4194425;28;20533;-54
2022/11/05 02:07:09;;;;;;;33.55;23.83;;;;;;;12.68;65.04;94139.84;4195552;28;20076;-55
2022/11/05 02:09:16;;;;;;;38.65;25.83;;;;;;;12.68;65.01;94139.84;4191742;28;20082;-57
2022/11/05 02:11:18;;;;;;;31.75;23.83;;;;;;;12.72;64.96;94134.25;4201474;28;20144;-56
2022/11/05 02:13:20;;;;;;;39.17;24.67;;;;;;;12.74;64.60;94140.94;4197994;28;20160;-56
2022/11/05 02:15:37;;;;;;;38.00;24.95;;;;;;;12.72;64.57;94150.00;4204213;28;20078;-54
2022/11/05 02:17:59;;;;;;;36.63;23.77;;;;;;;12.70;64.95;94151.00;4206107;28;20052;-53
2022/11/05 02:20:22;;;;;;;37.85;24.88;;;;;;;12.73;64.33;94133.22;4198629;28;20365;-53
2022/11/05 02:23:09;;;;;;;33.60;24.23;;;;;;;12.68;64.75;94139.06;4195319;28;20131;-54
2022/11/05 02:25:28;;;;;;;35.72;23.52;;;;;;;12.66;64.80;94136.59;4203951;28;20394;-54
2022/11/05 02:28:14;;;;;;;38.15;24.92;;;;;;;12.63;64.71;94134.34;4184747;28;20097;-51
2022/11/05 02:30:34;;;;;;;38.38;24.45;;;;;;;12.64;65.11;94135.16;4168122;28;20447;-54
2022/11/05 02:32:54;;;;;;;34.67;24.38;;;;;;;12.67;64.90;94132.97;4147566;28;20129;-53
2022/11/05 02:35:17;;;;;;;38.33;24.73;;;;;;;12.72;64.49;94139.50;4154939;28;20096;-56
2022/11/05 02:37:45;;;;;;;40.35;24.38;;;;;;;12.75;64.45;94134.66;4155200;28;20497;-55
2022/11/05 02:40:07;;;;;;;41.40;24.90;;;;;;;12.67;64.81;94132.19;4165734;28;20084;-56
2022/11/05 02:42:54;;;;;;;36.67;23.90;;;;;;;12.65;64.57;94134.97;4148133;28;20136;-55
2022/11/05 02:45:07;;;;;;;33.40;23.58;;;;;;;12.64;64.80;94135.16;4166525;28;20145;-55
2022/11/05 02:47:08;;;;;;;30.10;23.47;;;;;;;12.62;64.74;94135.34;4149527;28;20151;-53
2022/11/05 02:49:23;;;;;;;37.05;24.35;;;;;;;12.67;64.87;94140.06;4171981;28;20429;-57
2022/11/05 02:51:34;;;;;;;35.78;25.10;;;;;;;12.44;65.50;94135.75;4171617;28;20099;-55
2022/11/05 02:53:48;;;;;;;33.35;23.63;;;;;;;12.23;66.11;94141.75;4158230;28;20052;-56
2022/11/05 02:55:54;;;;;;;36.03;24.67;;;;;;;12.25;66.37;94141.56;4157478;28;20048;-54
2022/11/05 02:57:58;;;;;;;41.22;24.92;;;;;;;12.28;66.03;94142.03;4146751;28;20069;-54
2022/11/05 03:00:03;;;;;;;32.28;23.50;;;;;;;11.92;67.14;94141.16;4162241;28;20222;-52
2022/11/05 03:02:04;;;;;;;35.53;23.88;;;;;;;11.95;67.35;94148.66;4176688;28;20150;-56
2022/11/05 03:04:10;;;;;;;36.58;24.27;;;;;;;11.99;67.07;94142.84;4197882;28;20051;-56
2022/11/05 03:06:36;;;;;;;37.88;24.15;;;;;;;11.75;67.74;94143.91;4185421;28;20180;-57
2022/11/05 03:09:19;;;;;;;38.97;24.65;;;;;;;11.82;67.99;94152.69;4199396;28;20045;-54
2022/11/05 03:11:23;;;;;;;33.75;23.38;;;;;;;11.95;67.06;94153.91;4191587;28;20410;-55
2022/11/05 03:13:34;;;;;;;36.85;23.83;;;;;;;12.00;66.79;94157.63;4185914;28;20843;-52
2022/11/05 03:15:59;;;;;;;35.20;23.88;;;;;;;12.11;66.48;94150.28;4184393;28;20128;-51
2022/11/05 03:18:28;;;;;;;30.98;23.40;;;;;;;12.20;66.28;94144.75;4196275;28;20056;-57
2022/11/05 03:20:46;;;;;;;34.72;24.50;;;;;;;12.31;65.90;94145.28;4186169;28;20392;-56
2022/11/05 03:23:29;;;;;;;38.20;24.17;;;;;;;12.38;65.56;94141.72;4205388;28;20501;-54
2022/11/05 03:25:32;;;;;;;32.47;23.45;;;;;;;12.45;65.50;94152.31;4187795;28;20416;-50
2022/11/05 03:27:37;;;;;;;36.10;23.90;;;;;;;12.47;65.20;94147.69;4208507;28;20123;-54
2022/11/05 03:29:46;;;;;;;42.08;24.70;;;;;;;12.46;65.37;94138.19;4209244;28;20139;-54
2022/11/05 03:31:49;;;;;;;35.80;24.38;;;;;;;12.47;65.25;94148.50;4206337;28;20157;-53
2022/11/05 03:33:52;;;;;;;40.17;24.37;;;;;;;12.42;65.58;94160.56;4207444;28;20066;-51
2022/11/05 03:35:58;;;;;;;38.67;23.83;;;;;;;12.44;65.42;94169.91;4191136;28;20456;-53
2022/11/05 03:38:06;;;;;;;35.42;23.35;;;;;;;12.48;65.32;94170.34;4189815;28;20048;-49
2022/11/05 03:40:09;;;;;;;36.30;23.98;;;;;;;12.48;65.21;94171.16;4207053;28;20080;-54
2022/11/05 03:42:13;;;;;;;35.40;23.63;;;;;;;12.52;64.94;94171.63;4208130;28;20083;-53
2022/11/05 03:44:24;;;;;;;39.15;25.00;;;;;;;12.55;65.08;94173.88;4188920;28;20359;-49
2022/11/05 03:46:30;;;;;;;37.88;24.23;;;;;;;12.56;64.91;94172.88;4197175;28;20049;-51
2022/11/05 03:48:35;;;;;;;35.13;24.63;;;;;;;12.55;65.09;94183.56;4206881;28;20172;-55
2022/11/05 03:50:45;;;;;;;36.58;23.27;;;;;;;12.52;64.82;94179.50;4213335;28;20369;-52
2022/11/05 03:52:59;;;;;;;35.30;23.38;;;;;;;12.48;65.04;94180.88;4213217;28;20154;-53
2022/11/05 03:55:01;;;;;;;35.22;23.08;;;;;;;12.50;64.84;94184.94;4198218;28;20273;-53
2022/11/05 03:57:16;;;;;;;34.92;23.23;;;;;;;12.53;64.72;94181.13;4206236;28;20128;-51
2022/11/05 03:59:19;;;;;;;33.22;22.75;;;;;;;12.55;64.62;94197.53;4202238;28;20127;-55
2022/11/05 04:01:20;;;;;;;37.13;24.17;;;;;;;12.55;64.63;94192.25;4206961;28;20583;-50
2022/11/05 04:03:22;;;;;;;36.67;22.65;;;;;;;12.56;64.37;94191.28;4207161;28;20646;-52
2022/11/05 04:05:24;;;;;;;39.00;23.45;;;;;;;12.59;64.48;94187.47;4206913;28;20074;-55
2022/11/05 04:14:26;;;;;;;32.92;23.40;;;;;;;12.45;65.13;94181.22;4207630;28;20051;-51
2022/11/05 04:18:47;;;;;;;35.92;23.73;;;;;;;12.45;64.94;94183.84;4209861;28;20069;-52
2022/11/05 04:25:30;;;;;;;34.70;22.30;;;;;;;12.41;65.18;94186.03;4206695;28;20079;-52
2022/11/05 04:27:31;;;;;;;37.97;24.00;;;;;;;12.42;65.27;94176.34;4206525;28;20091;-50
2022/11/05 04:31:53;;;;;;;36.65;23.63;;;;;;;12.45;65.01;94200.44;4203767;28;20460;-52
2022/11/05 04:33:55;;;;;;;36.65;24.33;;;;;;;12.47;65.07;94208.94;4205827;28;20143;-51
2022/11/05 04:35:59;;;;;;;33.38;23.23;;;;;;;12.53;65.05;94214.47;4209482;28;20059;-53
2022/11/05 04:38:01;;;;;;;34.53;22.75;;;;;;;12.57;64.52;94213.09;4203380;28;20051;-55
2022/11/05 04:40:03;;;;;;;35.38;23.08;;;;;;;12.57;64.71;94210.47;4211287;28;20536;-52
2022/11/05 04:42:05;;;;;;;35.65;22.05;;;;;;;12.55;64.52;94217.72;4209737;28;20094;-52
2022/11/05 04:44:06;;;;;;;32.13;21.63;;;;;;;12.52;64.49;94216.28;4191210;28;20692;-53
2022/11/05 04:46:09;;;;;;;34.78;22.55;;;;;;;12.48;64.89;94213.19;4209766;28;20062;-53
2022/11/05 04:48:11;;;;;;;41.95;23.52;;;;;;;12.43;64.71;94217.34;4211273;28;20470;-55
2022/11/05 04:50:12;;;;;;;34.08;22.52;;;;;;;12.36;65.22;94209.41;4210107;28;20667;-52
2022/11/05 04:52:14;;;;;;;33.22;21.42;;;;;;;12.33;65.40;94219.47;4186582;28;20083;-56
2022/11/05 04:54:16;;;;;;;36.92;22.77;;;;;;;12.24;65.58;94214.31;4204276;28;20151;-51
2022/11/05 04:56:22;;;;;;;34.95;22.05;;;;;;;12.26;65.39;94209.69;4205126;28;20086;-54
2022/11/05 04:58:24;;;;;;;39.83;23.02;;;;;;;12.33;65.15;94206.34;4207389;28;20210;-54
2022/11/05 05:00:26;;;;;;;31.77;22.95;;;;;;;12.38;65.06;94193.47;4208433;28;20218;-54
2022/11/05 05:02:27;;;;;;;35.65;21.95;;;;;;;12.43;64.91;94206.84;4201826;28;20056;-56
2022/11/05 05:04:29;;;;;;;44.13;23.05;;;;;;;12.39;64.71;94209.03;4205816;28;20079;-56
2022/11/05 05:06:31;;;;;;;38.53;22.75;;;;;;;12.45;64.99;94204.84;4206606;28;20059;-51
2022/11/05 05:08:32;;;;;;;33.95;23.55;;;;;;;12.44;65.10;94209.31;4210035;28;20126;-51
2022/11/05 05:10:34;;;;;;;32.38;22.08;;;;;;;12.45;65.21;94212.75;4207865;28;20594;-57
2022/11/05 05:12:36;;;;;;;35.55;22.92;;;;;;;12.06;65.20;94212.00;4208272;28;20075;-53
2022/11/05 05:14:38;;;;;;;29.42;20.73;;;;;;;11.63;66.96;94226.66;4206572;28;20044;-49
2022/11/05 05:16:39;;;;;;;32.50;21.00;;;;;;;11.51;67.46;94217.56;4206843;28;20135;-55
2022/11/05 05:18:41;;;;;;;33.95;21.40;;;;;;;11.52;67.29;94224.47;4208439;28;20036;-50
2022/11/05 05:23:06;;;;;;;29.48;21.15;;;;;;;11.72;66.63;94228.22;4198692;28;20594;-54
2022/11/05 05:25:09;;;;;;;37.50;22.45;;;;;;;11.82;66.79;94228.78;4208172;28;20590;-55
2022/11/05 05:27:10;;;;;;;40.33;23.30;;;;;;;11.86;66.45;94245.00;4207969;28;20355;-56
2022/11/05 05:29:12;;;;;;;38.78;22.67;;;;;;;11.94;66.62;94241.50;4206757;28;20483;-56
2022/11/05 05:31:14;;;;;;;34.17;21.52;;;;;;;12.01;65.82;94245.06;4208447;28;20435;-55
2022/11/05 05:33:16;;;;;;;30.50;20.42;;;;;;;12.14;65.81;94250.50;4201716;28;20049;-54
2022/11/05 05:35:17;;;;;;;40.17;23.50;;;;;;;12.21;65.43;94255.84;4193415;28;20052;-57
2022/11/05 05:37:19;;;;;;;32.15;21.85;;;;;;;12.27;65.77;94255.94;4180736;28;20124;-57
2022/11/05 05:39:21;;;;;;;36.47;22.77;;;;;;;12.35;65.26;94260.31;4187283;28;20080;-57
2022/11/05 05:41:23;;;;;;;33.65;21.60;;;;;;;12.36;65.25;94258.50;4182967;28;20049;-56
2022/11/05 05:43:33;;;;;;;38.33;24.42;;;;;;;12.44;65.24;94267.09;4180843;28;20770;-56
2022/11/05 05:45:35;;;;;;;39.67;27.27;;;;;;;12.52;65.57;94265.38;4193702;28;20053;-53
2022/11/05 05:47:36;;;;;;;56.72;42.15;;;;;;;12.59;64.97;94264.47;4205264;28;20080;-52
2022/11/05 05:49:38;;;;;;;51.97;43.45;;;;;;;12.67;64.54;94268.84;4209902;28;20281;-53
2022/11/05 05:51:40;;;;;;;44.55;28.92;;;;;;;12.76;64.26;94272.19;4211733;28;20078;-53
2022/11/05 05:53:43;;;;;;;38.95;26.15;;;;;;;12.84;64.24;94265.00;4210016;28;20091;-53
2022/11/05 05:55:45;;;;;;;37.97;25.23;;;;;;;12.88;64.10;94278.56;4187967;28;20060;-56
2022/11/05 05:57:47;;;;;;;36.25;24.48;;;;;;;12.93;64.08;94264.88;4178510;28;20516;-58
2022/11/05 05:59:48;;;;;;;41.95;25.55;;;;;;;12.98;64.10;94259.91;4190526;28;20147;-57
2022/11/05 06:01:50;;;;;;;43.22;34.25;;;;;;;12.97;64.09;94261.72;4192830;28;20059;-55
2022/11/05 06:03:52;;;;;;;50.70;39.90;;;;;;;13.05;64.03;94269.47;4194596;28;20040;-55
2022/11/05 06:05:59;;;;;;;50.33;36.00;;;;;;;13.11;63.67;94267.94;4195407;28;20072;-51
2022/11/05 06:08:00;;;;;;;46.40;30.02;;;;;;;13.20;63.43;94264.19;4194624;28;20147;-57
2022/11/05 06:10:03;;;;;;;41.30;27.65;;;;;;;13.25;63.35;94264.47;4191330;28;20063;-55
2022/11/05 06:12:05;;;;;;;44.60;29.40;;;;;;;13.28;63.43;94260.66;4186929;28;20474;-51
2022/11/05 06:14:11;;;;;;;48.75;27.70;;;;;;;13.33;63.33;94258.28;4195599;28;20313;-52
2022/11/05 06:16:12;;;;;;;43.90;24.38;;;;;;;13.38;62.90;94262.97;4181217;28;20518;-54
2022/11/05 06:18:14;;;;;;;37.28;25.88;;;;;;;13.48;63.44;94256.41;4184303;28;20072;-51
2022/11/05 06:20:16;;;;;;;37.38;24.83;;;;;;;13.57;63.44;94259.72;4188199;28;20053;-50
2022/11/05 06:22:17;;;;;;;39.92;25.85;;;;;;;13.66;62.64;94255.19;4190848;28;20529;-52
2022/11/05 06:24:19;;;;;;;43.35;25.48;;;;;;;13.70;62.58;94259.03;4181259;28;20462;-53
2022/11/05 06:26:20;;;;;;;38.90;25.88;;;;;;;13.73;62.39;94263.94;4194870;28;20111;-53
2022/11/05 06:28:22;;;;;;;42.17;24.50;;;;;;;13.78;62.30;94258.91;4195228;28;20649;-54
2022/11/05 06:30:24;;;;;;;39.58;24.63;;;;;;;13.75;62.08;94256.69;4193836;28;20052;-53
2022/11/05 06:32:25;;;;;;;42.03;25.40;;;;;;;13.77;61.74;94252.03;4195007;28;20091;-55
2022/11/05 06:34:27;;;;;;;37.67;25.40;;;;;;;13.80;62.23;94254.28;4192112;28;20056;-53
2022/11/05 06:36:29;;;;;;;40.95;25.13;;;;;;;13.79;61.92;94252.66;4201376;28;20139;-54
2022/11/05 06:38:32;;;;;;;39.38;26.48;;;;;;;13.72;62.21;94252.63;4204522;28;20135;-53
2022/11/05 06:40:34;;;;;;;39.30;24.77;;;;;;;13.76;62.40;94253.03;4199083;28;20076;-51
2022/11/05 06:42:36;;;;;;;40.38;25.48;;;;;;;13.77;61.79;94253.88;4204792;28;20154;-55
2022/11/05 06:44:37;;;;;;;34.95;23.13;;;;;;;13.82;61.67;94262.81;4202036;28;20490;-55
2022/11/05 06:46:39;;;;;;;34.13;24.05;;;;;;;13.83;61.92;94255.72;4199136;28;20127;-53
2022/11/05 06:48:49;;;;;;;37.20;24.13;;;;;;;13.92;62.27;94259.84;4204676;28;20052;-53
2022/11/05 06:50:51;;;;;;;36.17;23.90;;;;;;;14.00;61.69;94251.00;4206261;28;20048;-54
2022/11/05 06:52:55;;;;;;;38.47;24.45;;;;;;;14.06;61.19;94239.69;4205035;28;20079;-51
2022/11/05 06:54:56;;;;;;;42.90;24.13;;;;;;;14.10;61.42;94238.31;4194004;28;20589;-53
2022/11/05 06:56:58;;;;;;;34.22;22.98;;;;;;;14.15;60.98;94233.28;4208312;28;20052;-54
2022/11/05 06:59:00;;;;;;;39.60;23.63;;;;;;;14.23;60.88;94241.03;4210243;28;20066;-56
2022/11/05 07:01:07;;;;;;;35.78;22.35;;;;;;;14.28;60.53;94236.00;4208578;28;20071;-53
2022/11/05 07:03:10;;;;;;;33.85;22.10;;;;;;;14.37;60.18;94239.31;4209943;28;20124;-54
2022/11/05 07:05:13;;;;;;;32.28;22.55;;;;;;;14.33;60.30;94233.59;4209674;28;20055;-53
2022/11/05 07:07:15;;;;;;;38.30;23.80;;;;;;;14.24;60.44;94226.88;4210038;28;20079;-58
2022/11/05 07:09:17;;;;;;;39.75;21.65;;;;;;;13.90;61.24;94227.63;4210159;28;20543;-55
2022/11/05 07:11:19;;;;;;;34.28;22.10;;;;;;;13.88;61.67;94240.19;4204610;28;20075;-54
2022/11/05 07:13:21;;;;;;;35.05;22.77;;;;;;;14.01;61.42;94234.19;4210531;28;20078;-49
2022/11/05 07:15:22;;;;;;;31.25;20.50;;;;;;;14.19;60.85;94216.06;4208637;28;20135;-53
2022/11/05 07:17:24;;;;;;;31.25;22.45;;;;;;;14.16;60.69;94213.03;4210538;28;20264;-54
2022/11/05 07:19:26;;;;;;;33.97;20.98;;;;;;;14.24;60.61;94229.50;4209892;28;20138;-56
2022/11/05 07:21:28;;;;;;;33.35;20.75;;;;;;;14.37;60.53;94226.13;4210446;28;20079;-57
2022/11/05 07:23:29;;;;;;;33.00;21.15;;;;;;;14.58;59.90;94233.16;4201232;28;20083;-53
2022/11/05 07:25:32;;;;;;;31.17;21.10;;;;;;;14.79;59.99;94229.59;4205030;28;20571;-53
2022/11/05 07:27:39;;;;;;;39.40;20.58;;;;;;;14.96;59.52;94222.19;4209663;28;20036;-54
2022/11/05 07:29:41;;;;;;;30.40;20.42;;;;;;;15.00;58.58;94230.53;4209651;28;20172;-54
2022/11/05 07:31:43;;;;;;;30.70;20.05;;;;;;;15.09;58.57;94232.75;4208638;28;20091;-54
2022/11/05 07:33:44;;;;;;;31.67;20.52;;;;;;;15.23;58.40;94228.34;4209944;28;20123;-54
2022/11/05 07:35:46;;;;;;;28.85;18.85;;;;;;;15.27;57.53;94226.13;4189017;28;20135;-54
2022/11/05 07:37:49;;;;;;;33.10;20.73;;;;;;;15.22;58.11;94215.34;4182209;28;20191;-53
2022/11/05 07:39:51;;;;;;;34.15;20.35;;;;;;;15.06;58.49;94217.34;4180781;28;20501;-55
2022/11/05 07:41:56;;;;;;;35.90;19.40;;;;;;;15.25;58.26;94220.22;4189905;28;20151;-54
2022/11/05 07:43:58;;;;;;;30.25;19.38;;;;;;;15.39;58.10;94211.34;4183669;28;20063;-52
2022/11/05 07:46:00;;;;;;;30.90;18.92;;;;;;;15.47;57.20;94205.88;4181774;28;20076;-53
2022/11/05 07:48:03;;;;;;;30.40;19.95;;;;;;;15.68;57.23;94209.31;4177695;28;20128;-57
2022/11/05 07:50:06;;;;;;;38.95;20.55;;;;;;;15.63;56.83;94206.50;4193801;28;20124;-56
2022/11/05 07:52:08;;;;;;;;;;;;;;;15.72;56.84;94211.41;4194323;28;20079;-53
2022/11/05 07:54:09;;;;;;;30.83;19.88;;;;;;;15.92;56.69;94216.69;4199194;28;19963;-56
2022/11/05 07:56:11;;;;;;;31.85;17.98;;;;;;;16.17;56.01;94205.47;4187663;28;20160;-56
2022/11/05 07:58:13;;;;;;;36.50;20.00;;;;;;;16.45;55.30;94209.69;4191610;28;20075;-52
2022/11/05 08:00:19;;;;;;;32.25;19.52;;;;;;;16.46;54.22;94201.56;4193594;28;20413;-53
2022/11/05 08:02:20;;;;;;;28.33;18.58;;;;;;;16.41;54.15;94203.19;4194935;28;20116;-54
2022/11/05 08:04:22;;;;;;;29.40;17.88;;;;;;;16.23;54.85;94202.00;4195422;28;20160;-53
2022/11/05 08:06:24;;;;;;;32.47;19.45;;;;;;;15.95;55.23;94196.97;4191280;28;20143;-53
2022/11/05 08:08:26;;;;;;;30.80;19.15;;;;;;;15.63;56.21;94195.94;4181112;28;20052;-56
2022/11/05 08:10:28;;;;;;;25.65;17.35;;;;;;;15.57;56.74;94193.09;4186796;28;20078;-53
2022/11/05 08:12:30;;;;;;;29.85;18.58;;;;;;;15.70;56.78;94196.72;4189750;28;20047;-55
2022/11/05 08:14:32;;;;;;;31.65;19.58;;;;;;;15.96;56.11;94195.97;4185586;28;20123;-53
2022/11/05 08:16:34;;;;;;;29.08;18.40;;;;;;;16.15;55.42;94196.94;4193266;28;20079;-52
2022/11/05 08:18:35;;;;;;;32.20;18.23;;;;;;;16.33;54.32;94194.47;4195518;28;20059;-53
2022/11/05 08:20:37;;;;;;;31.83;19.50;;;;;;;16.46;54.33;94196.28;4190621;28;20474;-55
2022/11/05 08:22:43;;;;;;;31.27;19.30;;;;;;;16.47;54.43;94195.25;4178310;28;20100;-55
2022/11/05 08:24:44;;;;;;;30.50;20.08;;;;;;;16.55;53.90;94195.03;4189754;28;20099;-56
2022/11/05 08:26:46;;;;;;;31.00;20.92;;;;;;;16.67;53.93;94199.66;4194407;28;20457;-54
2022/11/05 08:28:48;;;;;;;31.65;19.45;;;;;;;16.76;53.55;94196.59;4209738;28;20135;-54
2022/11/05 08:30:55;;;;;;;37.95;22.00;;;;;;;16.67;53.64;94208.44;4208136;28;20048;-53
2022/11/05 08:32:57;;;;;;;32.53;20.85;;;;;;;16.43;54.21;94191.41;4197968;28;20139;-54
2022/11/05 08:34:59;;;;;;;32.65;20.58;;;;;;;16.47;54.36;94197.09;4198321;28;20053;-56
2022/11/05 08:37:01;;;;;;;34.85;21.45;;;;;;;16.24;55.24;94198.38;4189983;28;20110;-53
2022/11/05 08:39:03;;;;;;;32.28;21.50;;;;;;;16.37;55.02;94186.97;4196478;28;20131;-53
2022/11/05 08:41:05;;;;;;;35.47;21.73;;;;;;;16.40;54.59;94191.81;4201854;28;20076;-53
2022/11/05 08:43:09;;;;;;;32.97;21.33;;;;;;;16.46;54.45;94192.84;4201353;28;20261;-54
2022/11/05 08:45:11;;;;;;;32.55;20.60;;;;;;;16.47;54.38;94191.81;4184685;28;20522;-55
2022/11/05 08:47:12;;;;;;;29.85;19.63;;;;;;;16.47;54.10;94191.81;4205918;28;20067;-53
2022/11/05 08:49:14;;;;;;;31.15;18.70;;;;;;;16.18;54.73;94200.00;4201697;28;20086;-54
2022/11/05 08:51:16;;;;;;;32.38;19.27;;;;;;;16.23;54.74;94195.94;4200631;28;20052;-52
2022/11/05 08:53:17;;;;;;;30.17;18.92;;;;;;;15.86;55.45;94187.63;4199338;28;20045;-56
2022/11/05 08:55:19;;;;;;;30.00;19.50;;;;;;;15.76;55.77;94191.47;4195118;28;20063;-56
2022/11/05 08:57:21;;;;;;;43.40;25.92;;;;;;;15.72;55.90;94195.56;4195746;28;20057;-52
2022/11/05 08:59:22;;;;;;;33.60;18.55;;;;;;;15.74;55.90;94192.69;4187649;28;20133;-57
2022/11/05 09:01:24;;;;;;;33.90;20.73;;;;;;;15.81;55.70;94190.91;4177987;28;20513;-55
2022/11/05 09:03:26;;;;;;;35.80;20.00;;;;;;;15.83;55.43;94188.88;4194719;28;20052;-53
2022/11/05 09:05:28;;;;;;;35.58;19.13;;;;;;;15.73;55.78;94178.69;4195725;28;20051;-52
2022/11/05 09:07:30;;;;;;;36.65;22.52;;;;;;;15.87;55.74;94186.59;4204728;28;20080;-55
2022/11/05 09:09:32;;;;;;;29.13;18.77;;;;;;;16.04;55.00;94176.44;4197524;28;20080;-56
2022/11/05 09:11:33;;;;;;;28.65;18.15;;;;;;;16.14;54.82;94182.13;4207736;28;20065;-55
2022/11/05 09:13:55;;;;;;;26.40;16.58;;;;;;;16.28;53.78;94181.09;4204354;28;20050;-53
2022/11/05 09:15:57;;;;;;;25.70;16.83;;;;;;;16.33;53.67;94181.25;4210551;28;20072;-54
2022/11/05 09:17:59;;;;;;;27.83;16.45;;;;;;;16.21;54.02;94182.91;4211275;28;20207;-53
2022/11/05 09:20:02;;;;;;;26.88;16.50;;;;;;;16.13;54.27;94181.31;4212091;28;20131;-49
2022/11/05 09:22:04;;;;;;;27.80;17.25;;;;;;;16.19;54.36;94177.00;4210259;28;20052;-53
2022/11/05 09:24:06;;;;;;;25.17;16.92;;;;;;;16.45;54.24;94175.34;4211121;28;20135;-57
2022/11/05 09:26:09;;;;;;;26.77;16.85;;;;;;;16.72;53.35;94171.59;4210735;28;20139;-55
2022/11/05 09:28:19;;;;;;;27.88;16.55;;;;;;;16.72;52.84;94171.59;4211657;28;20454;-57
2022/11/05 09:30:20;;;;;;;28.10;15.75;;;;;;;16.74;52.12;94174.03;4210753;28;20143;-50
2022/11/05 09:32:22;;;;;;;27.15;15.07;;;;;;;16.63;51.49;94167.56;4211599;28;20151;-54
2022/11/05 09:34:24;;;;;;;20.27;13.43;;;;;;;16.66;51.73;94167.13;4207228;28;20455;-55
2022/11/05 09:36:25;;;;;;;31.13;19.58;;;;;;;16.74;51.50;94161.59;4199868;28;20139;-55
2022/11/05 09:38:27;;;;;;;30.05;19.83;;;;;;;16.88;51.52;94154.44;4203505;28;20538;-53
2022/11/05 09:40:31;;;;;;;31.67;15.55;;;;;;;17.03;51.27;94161.28;4203381;28;20080;-52
2022/11/05 09:42:41;;;;;;;22.83;14.85;;;;;;;17.19;51.08;94158.97;4206658;28;20044;-53
2022/11/05 09:44:50;;;;;;;25.42;15.13;;;;;;;17.32;50.71;94159.91;4198047;28;20185;-52
2022/11/05 09:46:58;;;;;;;24.58;14.35;;;;;;;17.49;50.54;94155.72;4203809;28;20055;-52
2022/11/05 09:49:06;;;;;;;32.15;15.95;;;;;;;17.70;50.11;94159.00;4202848;28;20080;-52
2022/11/05 09:51:10;;;;;;;28.88;14.88;;;;;;;17.77;50.06;94152.66;4204019;28;20044;-53
2022/11/05 09:53:15;;;;;;;26.95;15.85;;;;;;;17.88;49.92;94150.34;4206396;28;20054;-53
2022/11/05 09:55:30;;;;;;;25.13;14.98;;;;;;;17.96;48.51;94156.19;4206985;28;20493;-55
2022/11/05 09:57:45;;;;;;;24.27;14.73;;;;;;;17.93;48.25;94159.25;4211687;28;20095;-54
2022/11/05 09:59:52;;;;;;;27.75;17.38;;;;;;;17.95;48.53;94153.75;4209857;28;20067;-55
2022/11/05 10:02:01;;;;;;;24.33;14.70;;;;;;;17.99;47.79;94158.38;4181588;28;20134;-55
2022/11/05 10:04:17;;;;;;;23.05;13.27;;;;;;;18.09;47.87;94152.59;4203844;28;20052;-57
2022/11/05 10:06:21;;;;;;;27.27;15.10;;;;;;;18.25;47.34;94145.09;4207632;28;20139;-54
2022/11/05 10:08:27;;;;;;;21.95;14.07;;;;;;;18.36;47.11;94144.38;4182941;28;20366;-57
2022/11/05 10:10:29;;;;;;;21.73;13.70;;;;;;;18.46;46.59;94147.31;4206825;28;20513;-55
2022/11/05 10:12:35;;;;;;;23.48;13.90;;;;;;;18.51;46.27;94142.16;4211423;28;20147;-54
2022/11/05 10:14:41;;;;;;;26.85;15.10;;;;;;;18.46;46.44;94144.66;4209767;28;20052;-54
2022/11/05 10:16:47;;;;;;;24.38;15.15;;;;;;;18.17;47.08;94135.59;4209582;28;20135;-53
2022/11/05 10:18:58;;;;;;;19.40;14.27;;;;;;;17.93;47.28;94132.75;4209826;28;20132;-55